Hovedside
METAR-TAF:

METAR-TAF

Lufthavner :

Evenes, Norge

Harstad/Narvik lufthavn

breddegrad: 68-31N, lengdegrad: 016-41E, høyde over havet: 26 m

Gjeldene værobservasjon

Denne rapporten ble laget for 36 minutter siden, klokken 13:50 UTC
Vind 12 kt fra Sørøst, skiftende mellom Øst og Sør-sørøst
Temperatur -4°C
Luftfuktighet 58%
Trykk 1016 hPa
Sikt 10 km eller mer
Spredte skyer i en høyde av 4000 ft

METAR: ENEV 221350Z 13012KT 100V160 9999 SCT040 M04/M11 Q1016 RMK WIND 1400FT 11028KT

Tid: 15:26 (14:26 UTC)

Varsel

Denne rapporten ble laget for 3 timer og 26 minutter siden, klokken 11:00 UTC
Varsel gyldig fra 22. klokken 12 UTC til 22. klokken 21 UTC
Vind 15 kt fra Øst-sørøst
Sikt 10 km eller mer
Få skyer i en høyde av 4000 ft
Spredte skyer i en høyde av 8000 ft
Midlertidig
fra 22. klokken 12 UTC til 22. klokken 21 UTC
Vind 25 kt fra Øst med vindkast opp mot 35 kt

TAF: ENEV 221100Z 2212/2221 12015KT 9999 FEW040 SCT080 TEMPO 2212/2221 10025G35KT

Værobservasjoner og værvarsel for over 4000 flyplasser (METAR- og TAF-rapporter).

Tilgjengelige stasjoner er representert av de røde og gule prikkene på kartet.

Hold musepekeren over prikken for å se navnet på stasjonen.

Klikk så for å se værobservasjoner og -varsler.

For å forandre kartet kan du klikke på den grønne knappen med svart kryss for å zoome inn, på den grønne knappen med strek for å zoome ut, eller på de grønne pilene for å se tilstøtende kart.


METAR-TAF: